createdAt,value
2023-02-14T00:01:23.842Z,2.57
2023-02-14T00:03:51.255Z,2.55
2023-02-14T00:06:18.559Z,2.79
2023-02-14T00:08:46.290Z,2.71
2023-02-14T00:11:13.790Z,2.86
2023-02-14T00:14:01.631Z,3.07
2023-02-14T00:16:28.953Z,2.97
2023-02-14T00:19:05.955Z,2.98
2023-02-14T00:21:36.285Z,3.02
2023-02-14T00:24:09.590Z,2.51
2023-02-14T05:07:32.864Z,1.58
2023-02-14T05:12:53.104Z,1.88
2023-02-14T05:15:20.806Z,2.00
2023-02-14T05:17:48.197Z,1.68
2023-02-14T05:20:15.544Z,1.89
2023-02-14T05:22:42.946Z,1.41
2023-02-14T05:25:10.306Z,1.37
2023-02-14T05:27:37.520Z,1.39
2023-02-14T05:30:05.821Z,1.46
2023-02-14T05:32:33.213Z,1.37
2023-02-14T05:35:01.319Z,1.42
2023-02-14T05:37:28.641Z,1.34
2023-02-14T05:39:56.462Z,1.55
2023-02-14T05:42:23.686Z,1.68
2023-02-14T05:44:50.976Z,1.59
2023-02-14T05:47:18.215Z,1.87
2023-02-14T05:49:46.038Z,2.03
2023-02-14T05:52:13.278Z,1.97
2023-02-14T05:54:40.576Z,1.86
2023-02-14T05:57:07.845Z,1.45
2023-02-14T05:59:35.313Z,1.20
2023-02-14T06:02:03.065Z,1.16
2023-02-14T06:04:30.680Z,1.10
2023-02-14T06:06:58.048Z,1.17
2023-02-14T06:09:25.473Z,1.12
2023-02-14T06:11:55.260Z,1.26
2023-02-14T06:14:23.020Z,1.47
2023-02-14T06:16:50.990Z,1.63
2023-02-14T06:19:18.374Z,1.94
2023-02-14T06:21:46.845Z,2.08
2023-02-14T06:24:14.288Z,2.20
2023-02-14T06:26:42.131Z,2.16
2023-02-14T06:29:09.463Z,2.18
2023-02-14T06:31:37.361Z,2.26
2023-02-14T06:34:04.638Z,2.15
2023-02-14T06:36:32.281Z,2.24
2023-02-14T06:38:59.568Z,2.26
2023-02-14T06:41:26.976Z,2.19
2023-02-14T06:43:54.830Z,2.19
2023-02-14T06:46:22.452Z,2.24
2023-02-14T06:48:50.916Z,2.27
2023-02-14T06:51:18.278Z,2.21
2023-02-14T06:53:45.630Z,2.46
2023-02-14T06:56:12.963Z,2.48
2023-02-14T06:58:40.253Z,2.51
2023-02-14T07:01:07.625Z,2.68
2023-02-14T07:03:35.014Z,2.62
2023-02-14T07:06:02.396Z,2.73
2023-02-14T07:08:29.663Z,2.62
2023-02-14T07:10:58.740Z,2.75
2023-02-14T07:13:26.978Z,2.89
2023-02-14T07:15:54.529Z,2.97
2023-02-14T07:18:21.993Z,3.01
2023-02-14T07:20:50.729Z,2.66
2023-02-14T07:23:18.459Z,2.65
2023-02-14T07:25:45.830Z,2.70
2023-02-14T07:28:13.599Z,2.15
2023-02-14T07:30:40.973Z,1.95
2023-02-14T07:33:08.382Z,1.89
2023-02-14T07:35:36.517Z,2.09
2023-02-14T07:38:03.899Z,1.92
2023-02-14T07:40:31.161Z,1.86
2023-02-14T07:43:00.758Z,2.12
2023-02-14T07:45:28.079Z,2.07
2023-02-14T07:47:55.714Z,2.18
2023-02-14T07:50:23.889Z,2.09
2023-02-14T07:52:51.278Z,2.11
2023-02-14T07:55:19.324Z,2.14
2023-02-14T07:57:49.847Z,2.18
2023-02-14T08:00:18.780Z,2.17
2023-02-14T08:02:47.163Z,2.41
2023-02-14T08:05:15.623Z,2.42
2023-02-14T08:07:44.353Z,2.54
2023-02-14T08:10:13.122Z,2.74
2023-02-14T08:12:59.443Z,2.83
2023-02-14T08:15:53.295Z,2.71
2023-02-14T08:18:27.168Z,2.83
2023-02-14T08:20:55.200Z,2.89
2023-02-14T08:23:23.031Z,3.19
2023-02-14T08:25:52.271Z,3.05
2023-02-14T08:28:23.308Z,3.33
2023-02-14T08:30:51.325Z,3.29
2023-02-14T08:33:19.296Z,3.41
2023-02-14T08:35:46.982Z,3.48
2023-02-14T08:38:14.847Z,3.66
2023-02-14T08:40:42.880Z,3.85
2023-02-14T08:43:11.234Z,4.03
2023-02-14T08:45:38.786Z,4.07
2023-02-14T08:48:09.465Z,4.16
2023-02-14T08:50:38.026Z,4.44
2023-02-14T08:53:10.256Z,4.53
2023-02-14T08:55:38.354Z,4.89
2023-02-14T08:58:06.750Z,4.90
2023-02-14T09:00:34.691Z,4.69
2023-02-14T09:03:02.493Z,4.86
2023-02-14T09:05:30.808Z,4.82
2023-02-14T09:07:58.510Z,4.89
2023-02-14T09:10:26.588Z,4.95
2023-02-14T09:12:53.982Z,4.97
2023-02-14T09:15:21.421Z,5.26
2023-02-14T09:17:51.044Z,5.18
2023-02-14T09:20:19.270Z,5.27
2023-02-14T09:22:48.643Z,5.46
2023-02-14T09:25:17.452Z,5.33
2023-02-14T09:27:44.923Z,5.51
2023-02-14T09:30:12.879Z,5.48
2023-02-14T09:32:40.241Z,5.74
2023-02-14T09:35:07.854Z,6.07
2023-02-14T09:37:35.243Z,6.24
2023-02-14T09:40:04.660Z,5.98
2023-02-14T09:42:46.692Z,6.21
2023-02-14T09:45:16.789Z,6.40
2023-02-14T09:47:48.966Z,6.40
2023-02-14T09:50:42.446Z,6.59
2023-02-14T09:53:23.266Z,6.70
2023-02-14T09:56:04.577Z,6.89
2023-02-14T09:58:55.051Z,7.09
2023-02-14T10:01:27.761Z,7.19
2023-02-14T10:04:01.545Z,7.64
2023-02-14T10:06:44.030Z,7.71
2023-02-14T10:09:16.517Z,8.04
2023-02-14T10:11:46.389Z,7.80
2023-02-14T10:14:27.915Z,7.76
2023-02-14T10:17:08.035Z,7.75
2023-02-14T10:19:43.446Z,8.05
2023-02-14T10:22:16.411Z,8.19
2023-02-14T10:24:57.543Z,8.54
2023-02-14T10:27:42.261Z,8.48
2023-02-14T10:30:15.104Z,8.61
2023-02-14T10:32:53.224Z,8.74
2023-02-14T10:35:38.927Z,8.85
2023-02-14T10:38:35.101Z,9.04
2023-02-14T10:41:20.916Z,8.96
2023-02-14T10:44:03.401Z,9.29
2023-02-14T10:46:53.208Z,9.14
2023-02-14T10:49:57.807Z,9.43
2023-02-14T10:52:43.903Z,9.45
2023-02-14T10:55:32.361Z,9.78
2023-02-14T10:58:02.997Z,9.59
2023-02-14T11:00:37.442Z,9.96
2023-02-14T11:03:09.489Z,9.97
2023-02-14T11:05:44.979Z,10.10
2023-02-14T11:08:22.971Z,10.27
2023-02-14T11:10:51.115Z,10.09
2023-02-14T11:13:37.280Z,10.41
2023-02-14T11:16:09.039Z,10.30
2023-02-14T11:18:40.954Z,10.39
2023-02-14T11:21:13.700Z,10.86
2023-02-14T11:23:44.491Z,10.91
2023-02-14T11:26:23.086Z,11.07
2023-02-14T11:28:55.650Z,10.77
2023-02-14T11:31:38.237Z,11.45
2023-02-14T11:34:27.573Z,10.92
2023-02-14T11:36:54.950Z,11.24
2023-02-14T11:39:33.074Z,11.15
2023-02-14T11:42:04.434Z,11.43
2023-02-14T11:44:33.998Z,11.27
2023-02-14T11:47:27.146Z,11.87
2023-02-14T11:50:01.377Z,11.66
2023-02-14T11:52:30.867Z,11.61
2023-02-14T11:54:59.182Z,11.53
2023-02-14T11:57:35.220Z,11.58
2023-02-14T12:00:14.118Z,11.46
2023-02-14T12:02:48.917Z,11.69
2023-02-14T12:05:36.790Z,11.75
2023-02-14T12:08:06.493Z,11.64
2023-02-14T12:10:39.453Z,11.96
2023-02-14T12:13:09.848Z,12.05
2023-02-14T12:15:44.873Z,12.05
2023-02-14T12:18:40.361Z,11.95
2023-02-14T12:21:25.719Z,11.90
2023-02-14T12:24:18.631Z,11.93
2023-02-14T12:27:00.289Z,12.16
2023-02-14T12:29:41.973Z,12.16
2023-02-14T12:32:30.595Z,12.22
2023-02-14T12:35:07.290Z,12.52
2023-02-14T12:38:04.421Z,12.42
2023-02-14T12:40:50.513Z,12.67
2023-02-14T12:43:45.384Z,12.85
2023-02-14T12:46:29.864Z,12.57
2023-02-14T12:49:22.548Z,12.64
2023-02-14T12:52:28.482Z,12.57
2023-02-14T12:55:18.270Z,12.69
2023-02-14T12:58:05.474Z,12.91
2023-02-14T13:00:53.698Z,12.76
2023-02-14T13:03:20.917Z,13.06
2023-02-14T13:06:05.461Z,13.19
2023-02-14T13:09:22.309Z,13.02
2023-02-14T13:12:12.916Z,13.10
2023-02-14T13:14:59.258Z,13.35
2023-02-14T13:17:46.433Z,13.53
2023-02-14T13:20:45.013Z,13.52
2023-02-14T13:23:19.103Z,13.82
2023-02-14T13:25:58.194Z,13.44
2023-02-14T13:28:27.296Z,13.66
2023-02-14T13:30:56.313Z,13.77
2023-02-14T13:33:37.991Z,13.60
2023-02-14T13:36:08.851Z,13.51
2023-02-14T13:38:51.945Z,13.85
2023-02-14T13:41:22.356Z,13.90
2023-02-14T13:43:52.907Z,13.77
2023-02-14T13:46:32.181Z,14.09
2023-02-14T13:49:31.808Z,14.48
2023-02-14T13:52:03.486Z,15.42
2023-02-14T13:54:34.335Z,16.06
2023-02-14T13:57:31.487Z,16.89
2023-02-14T14:00:17.404Z,18.14
2023-02-14T14:02:48.376Z,19.68
2023-02-14T14:05:30.735Z,22.12
2023-02-14T14:08:23.222Z,21.58
2023-02-14T14:10:55.837Z,20.60
2023-02-14T14:13:41.550Z,20.40
2023-02-14T14:16:27.529Z,22.11
2023-02-14T14:19:09.700Z,20.96
2023-02-14T14:21:41.281Z,18.99
2023-02-14T14:24:22.315Z,15.72
2023-02-14T14:26:58.191Z,17.85
2023-02-14T14:29:32.590Z,22.34
2023-02-14T14:32:08.904Z,19.14
2023-02-14T14:34:36.227Z,16.12
2023-02-14T14:37:06.750Z,15.88
2023-02-14T14:39:35.686Z,14.75
2023-02-14T14:42:15.126Z,14.35
2023-02-14T14:44:53.305Z,14.62
2023-02-14T14:47:37.854Z,14.60
2023-02-14T14:50:10.238Z,14.15
2023-02-14T14:52:41.787Z,14.20
2023-02-14T14:55:21.184Z,14.40
2023-02-14T14:57:56.996Z,14.03
2023-02-14T15:00:28.950Z,13.96
2023-02-14T15:02:57.904Z,14.00
2023-02-14T15:05:38.671Z,13.91
2023-02-14T15:08:21.988Z,14.02
2023-02-14T15:11:04.504Z,13.89
2023-02-14T15:13:57.498Z,13.97
2023-02-14T15:16:32.432Z,14.04
2023-02-14T15:19:10.470Z,14.06
2023-02-14T15:21:44.224Z,13.78
2023-02-14T15:24:16.040Z,13.70
2023-02-14T15:26:48.216Z,13.72
2023-02-14T15:29:27.672Z,13.66
2023-02-14T15:32:00.444Z,13.77
2023-02-14T15:34:32.586Z,13.75
2023-02-14T15:37:06.252Z,13.70
2023-02-14T15:39:37.823Z,13.71
2023-02-14T15:42:19.584Z,13.76
2023-02-14T15:44:46.954Z,13.62
2023-02-14T15:47:16.222Z,13.58
2023-02-14T15:49:46.606Z,13.64
2023-02-14T15:52:16.153Z,13.58
2023-02-14T15:54:47.237Z,13.45
2023-02-14T15:57:29.566Z,13.40
2023-02-14T15:59:57.219Z,13.48
2023-02-14T16:02:36.679Z,13.46
2023-02-14T16:05:15.872Z,13.57
2023-02-14T16:08:05.915Z,13.24
2023-02-14T16:10:34.536Z,13.20
2023-02-14T16:13:20.708Z,13.07
2023-02-14T16:16:06.627Z,12.91
2023-02-14T16:18:38.983Z,12.83
2023-02-14T16:21:33.197Z,12.95
2023-02-14T16:24:07.142Z,12.99
2023-02-14T16:26:35.887Z,12.98
2023-02-14T16:29:04.910Z,12.82
2023-02-14T16:31:34.345Z,12.50
2023-02-14T16:34:01.844Z,12.19
2023-02-14T16:36:31.944Z,11.99
2023-02-14T16:39:03.281Z,11.79
2023-02-14T16:41:33.136Z,11.77
2023-02-14T16:44:00.737Z,11.74
2023-02-14T16:46:35.362Z,11.72
2023-02-14T16:49:02.723Z,11.76
2023-02-14T16:51:33.861Z,11.38
2023-02-14T16:54:06.484Z,11.42
2023-02-14T16:56:42.492Z,11.64
2023-02-14T16:59:10.771Z,11.53
2023-02-14T17:01:38.083Z,11.47
2023-02-14T17:04:05.844Z,11.34
2023-02-14T17:06:35.947Z,11.23
2023-02-14T17:09:08.940Z,11.16
2023-02-14T17:11:42.264Z,11.00
2023-02-14T17:14:13.671Z,10.87
2023-02-14T17:16:42.178Z,10.84
2023-02-14T17:19:10.335Z,10.64
2023-02-14T17:21:38.452Z,10.57
2023-02-14T17:24:05.905Z,10.52
2023-02-14T17:26:33.878Z,10.47
2023-02-14T17:29:01.612Z,10.40
2023-02-14T17:31:29.100Z,10.33
2023-02-14T17:33:56.673Z,10.27
2023-02-14T17:36:24.657Z,10.20
2023-02-14T17:38:54.075Z,10.15
2023-02-14T17:41:26.520Z,10.10
2023-02-14T17:43:54.870Z,10.05
2023-02-14T17:46:22.258Z,10.00
2023-02-14T17:48:50.103Z,9.94
2023-02-14T17:51:20.352Z,9.96
2023-02-14T17:53:48.902Z,9.91
2023-02-14T17:56:22.955Z,9.88
2023-02-14T17:58:51.873Z,9.86
2023-02-14T18:01:22.232Z,9.79
2023-02-14T18:03:51.874Z,9.66
2023-02-14T18:06:19.757Z,9.59
2023-02-14T18:08:49.885Z,9.39
2023-02-14T18:11:19.462Z,9.29
2023-02-14T18:13:47.192Z,9.22
2023-02-14T18:16:18.004Z,9.12
2023-02-14T18:18:45.929Z,8.98
2023-02-14T18:21:15.810Z,8.85
2023-02-14T18:23:43.442Z,8.79
2023-02-14T18:26:13.229Z,8.74
2023-02-14T18:28:41.281Z,8.64
2023-02-14T18:31:15.269Z,8.55
2023-02-14T18:33:43.783Z,8.50
2023-02-14T18:36:14.084Z,8.47
2023-02-14T18:38:43.407Z,8.43
2023-02-14T18:41:14.058Z,8.48
2023-02-14T18:43:45.223Z,8.35
2023-02-14T18:46:18.547Z,8.40
2023-02-14T18:48:46.293Z,8.38
2023-02-14T18:51:19.177Z,8.28
2023-02-14T18:53:47.880Z,8.27
2023-02-14T18:56:17.520Z,8.14
2023-02-14T18:58:48.016Z,8.17
2023-02-14T19:01:18.093Z,8.19
2023-02-14T19:03:52.890Z,8.16
2023-02-14T19:06:21.511Z,8.05
2023-02-14T19:08:50.195Z,7.89
2023-02-14T19:11:20.218Z,7.73
2023-02-14T19:13:50.044Z,7.72
2023-02-14T19:16:21.028Z,7.69
2023-02-14T19:18:49.824Z,7.70
2023-02-14T19:21:22.370Z,7.79
2023-02-14T19:23:49.896Z,7.78
2023-02-14T19:26:23.335Z,7.78
2023-02-14T19:28:59.524Z,7.65
2023-02-14T19:31:27.821Z,7.58
2023-02-14T19:33:55.465Z,7.61
2023-02-14T19:36:24.397Z,7.55
2023-02-14T19:38:53.485Z,7.59
2023-02-14T19:41:24.860Z,7.42
2023-02-14T19:43:53.081Z,7.44
2023-02-14T19:46:21.842Z,7.45
2023-02-14T19:48:49.715Z,7.46
2023-02-14T19:51:29.682Z,7.40
2023-02-14T19:53:58.902Z,7.24
2023-02-14T19:56:28.969Z,7.36
2023-02-14T19:58:56.771Z,7.29
2023-02-14T20:01:31.885Z,7.13
2023-02-14T20:03:59.213Z,7.01
2023-02-14T20:06:29.243Z,7.14
2023-02-14T20:08:57.732Z,7.07
2023-02-14T20:11:30.590Z,6.99
2023-02-14T20:13:58.996Z,6.86
2023-02-14T20:16:28.233Z,6.47
2023-02-14T20:18:56.507Z,6.44
2023-02-14T20:21:28.205Z,6.52
2023-02-14T20:24:01.012Z,6.37
2023-02-14T20:26:30.975Z,6.22
2023-02-14T20:28:59.791Z,5.90
2023-02-14T20:31:27.165Z,5.55
2023-02-14T20:33:55.888Z,5.36
2023-02-14T20:36:24.866Z,5.26
2023-02-14T20:38:57.166Z,5.41
2023-02-14T20:41:27.621Z,5.29
2023-02-14T20:43:55.985Z,5.15
2023-02-14T20:46:23.470Z,5.20
2023-02-14T20:48:51.046Z,5.16
2023-02-14T20:51:20.920Z,5.07
2023-02-14T20:53:48.905Z,5.20
2023-02-14T20:56:17.201Z,5.11
2023-02-14T20:58:44.795Z,5.14
2023-02-14T21:01:15.332Z,5.42
2023-02-14T21:03:46.694Z,5.56
2023-02-14T21:06:14.996Z,5.85
2023-02-14T21:08:43.602Z,6.00
2023-02-14T21:11:13.437Z,6.06
2023-02-14T21:13:41.386Z,6.14
2023-02-14T21:16:12.486Z,6.12
2023-02-14T21:18:40.233Z,6.10
2023-02-14T21:21:13.443Z,6.13
2023-02-14T21:23:41.919Z,6.08
2023-02-14T21:26:09.395Z,5.85
2023-02-14T21:28:36.826Z,6.05
2023-02-14T21:31:11.065Z,6.05
2023-02-14T21:33:38.858Z,6.11
2023-02-14T21:36:12.115Z,6.06
2023-02-14T21:38:39.766Z,5.95
2023-02-14T21:41:10.694Z,5.99
2023-02-14T21:43:40.617Z,5.95
2023-02-14T21:46:14.660Z,6.01
2023-02-14T21:49:02.587Z,5.97
2023-02-14T21:51:30.237Z,5.76
2023-02-14T21:53:59.785Z,5.70
2023-02-14T21:56:28.195Z,5.70
2023-02-14T21:58:56.145Z,5.74
2023-02-14T22:01:29.098Z,5.66
2023-02-14T22:03:56.782Z,5.63
